Time;durP1;ratioP1;P1;durP2;ratioP2;P2;SDS_P1;SDS_P2;PMS_P1;PMS_P2;Temp;Humidity;BMP_temperature;BMP_pressure;BME280_temperature;BME280_humidity;BME280_pressure;Samples;Min_cycle;Max_cycle;Signal;HPM_P1;HPM_P2
2021/09/22 00:02:07;;;;;;;16.33;11.10;;;;;;;15.48;61.13;100101.03;5087389;28;20055;-69
2021/09/22 00:04:34;;;;;;;16.38;11.23;;;;;;;15.46;61.83;100099.75;5087797;28;20061;-69
2021/09/22 00:07:00;;;;;;;20.30;11.88;;;;;;;15.42;62.46;100110.88;5087554;28;20066;-69
2021/09/22 00:09:26;;;;;;;20.02;12.27;;;;;;;15.45;62.47;100115.84;5086759;28;20050;-69
2021/09/22 00:11:52;;;;;;;16.10;12.05;;;;;;;15.45;62.60;100107.38;5080182;28;20026;-69
2021/09/22 00:14:17;;;;;;;16.38;11.32;;;;;;;15.53;62.31;100105.63;5088176;28;20024;-69
2021/09/22 00:16:43;;;;;;;19.45;12.38;;;;;;;15.53;61.89;100094.34;5090305;28;20024;-69
2021/09/22 00:19:09;;;;;;;18.42;12.55;;;;;;;15.47;62.04;100095.75;5089782;28;20471;-69
2021/09/22 00:21:34;;;;;;;19.10;12.82;;;;;;;15.49;61.72;100099.84;5089331;28;20016;-69
2021/09/22 00:24:00;;;;;;;18.80;12.43;;;;;;;15.41;61.48;100100.78;5088231;28;20479;-69
2021/09/22 00:26:26;;;;;;;18.25;12.15;;;;;;;15.34;62.31;100098.56;5084831;28;20020;-69
2021/09/22 00:28:51;;;;;;;18.23;12.00;;;;;;;15.43;61.66;100092.81;5086991;28;20468;-69
2021/09/22 00:31:20;;;;;;;19.50;12.73;;;;;;;15.33;62.46;100087.66;5086509;28;20016;-69
2021/09/22 00:33:45;;;;;;;20.80;12.27;;;;;;;15.39;62.41;100089.88;5089979;28;20055;-69
2021/09/22 00:36:11;;;;;;;18.70;12.43;;;;;;;15.36;62.22;100089.78;5083925;28;20193;-69
2021/09/22 00:38:37;;;;;;;21.00;13.55;;;;;;;15.42;61.40;100079.88;5090008;28;20049;-69
2021/09/22 00:41:03;;;;;;;18.33;12.60;;;;;;;15.45;61.44;100087.66;5090695;28;20032;-69
2021/09/22 00:43:28;;;;;;;20.67;13.32;;;;;;;15.50;61.06;100086.56;5090461;28;20053;-69
2021/09/22 00:45:54;;;;;;;19.95;12.38;;;;;;;15.33;61.99;100082.03;5090163;28;20044;-69
2021/09/22 00:48:21;;;;;;;17.88;12.88;;;;;;;15.55;61.11;100075.88;5088446;28;20023;-69
2021/09/22 00:50:49;;;;;;;19.17;12.93;;;;;;;15.57;60.85;100081.19;5083775;28;20035;-69
2021/09/22 00:53:15;;;;;;;19.90;12.70;;;;;;;15.56;60.25;100076.72;5088015;28;20403;-69
2021/09/22 00:55:45;;;;;;;16.92;11.48;;;;;;;15.56;60.58;100074.69;5086759;28;20047;-69
2021/09/22 00:58:11;;;;;;;18.87;12.70;;;;;;;15.66;59.71;100066.94;5086655;28;20024;-69
2021/09/22 01:00:38;;;;;;;18.45;12.52;;;;;;;15.68;60.12;100068.22;5085571;28;20453;-69
2021/09/22 01:03:06;;;;;;;19.85;12.45;;;;;;;15.65;60.09;100073.75;5087193;28;20040;-69
2021/09/22 01:05:33;;;;;;;19.83;13.27;;;;;;;15.70;59.89;100060.22;5087157;28;20023;-69
2021/09/22 01:08:00;;;;;;;18.33;12.85;;;;;;;15.75;59.75;100061.16;5090492;28;20031;-69
2021/09/22 01:10:26;;;;;;;18.33;12.38;;;;;;;15.65;59.59;100068.13;5085141;28;20016;-69
2021/09/22 01:12:52;;;;;;;24.15;14.65;;;;;;;15.62;60.26;100064.00;5088092;28;20024;-69
2021/09/22 01:15:33;;;;;;;17.60;12.00;;;;;;;15.64;60.17;100052.38;5083433;28;20028;-69
2021/09/22 01:18:00;;;;;;;19.95;12.65;;;;;;;15.58;59.98;100061.09;5089082;28;20039;-69
2021/09/22 01:20:29;;;;;;;16.92;12.05;;;;;;;15.46;60.42;100057.47;5089871;28;20103;-69
2021/09/22 01:22:59;;;;;;;17.30;12.30;;;;;;;15.42;60.32;100046.06;5091431;28;20023;-69
2021/09/22 01:25:26;;;;;;;22.55;13.15;;;;;;;15.48;60.43;100053.13;5090562;28;20411;-69
2021/09/22 01:27:57;;;;;;;18.08;13.10;;;;;;;15.55;59.64;100046.88;5090985;28;20036;-69
2021/09/22 01:30:24;;;;;;;18.98;11.65;;;;;;;15.60;58.85;100051.47;5091357;28;20413;-69
2021/09/22 01:32:51;;;;;;;22.02;14.15;;;;;;;15.53;59.12;100047.22;5091248;28;20024;-69
2021/09/22 01:35:17;;;;;;;20.45;12.77;;;;;;;15.57;58.19;100042.53;5091152;28;20028;-69
2021/09/22 01:37:43;;;;;;;17.75;12.13;;;;;;;15.57;58.49;100034.09;5090953;28;20024;-69
2021/09/22 01:40:09;;;;;;;20.00;12.75;;;;;;;15.64;58.64;100024.19;5091079;28;20489;-69
2021/09/22 01:42:34;;;;;;;19.08;12.50;;;;;;;15.68;57.63;100030.75;5089439;28;20020;-69
2021/09/22 01:45:12;;;;;;;15.20;10.77;;;;;;;15.63;57.77;100028.19;5091159;28;20017;-69
2021/09/22 01:47:37;;;;;;;18.08;12.50;;;;;;;15.67;57.56;100017.81;5089780;28;20028;-69
2021/09/22 01:50:12;;;;;;;19.23;13.10;;;;;;;15.43;58.13;100028.81;5089827;28;20062;-69
2021/09/22 01:52:38;;;;;;;20.25;13.13;;;;;;;15.45;58.43;100028.47;5095213;28;20043;-69
2021/09/22 01:55:06;;;;;;;18.90;12.98;;;;;;;15.51;58.53;100029.84;5093790;28;20023;-69
2021/09/22 01:57:32;;;;;;;18.20;12.93;;;;;;;15.54;57.54;100029.13;5095079;28;20025;-69
2021/09/22 01:59:58;;;;;;;18.55;13.25;;;;;;;15.49;58.11;100029.38;5095197;28;20027;-69
2021/09/22 02:02:23;;;;;;;18.60;12.68;;;;;;;15.41;58.57;100028.34;5095066;28;20151;-69
2021/09/22 02:04:49;;;;;;;17.92;12.40;;;;;;;15.41;58.49;100030.31;5095223;28;20035;-69
2021/09/22 02:07:15;;;;;;;18.55;12.80;;;;;;;15.38;58.49;100025.41;5093417;28;20433;-69
2021/09/22 02:09:40;;;;;;;20.48;13.38;;;;;;;15.41;57.71;100024.69;5095213;28;20023;-69
2021/09/22 02:12:06;;;;;;;19.88;12.85;;;;;;;15.29;57.91;100028.38;5093385;28;20490;-69
2021/09/22 02:14:32;;;;;;;18.20;12.43;;;;;;;15.27;57.52;100025.88;5094947;28;20024;-69
2021/09/22 02:16:58;;;;;;;19.35;13.02;;;;;;;15.29;57.63;100017.91;5094747;28;20023;-69
2021/09/22 02:19:23;;;;;;;17.30;12.15;;;;;;;15.27;57.60;100020.25;5094858;28;20031;-69
2021/09/22 02:21:49;;;;;;;22.40;12.52;;;;;;;15.13;58.13;100029.06;5094655;28;20411;-69
2021/09/22 02:24:15;;;;;;;18.02;12.85;;;;;;;15.27;57.16;100034.34;5094199;28;20467;-69
2021/09/22 02:26:41;;;;;;;15.13;12.20;;;;;;;15.14;57.44;100039.19;5091939;28;20042;-69
2021/09/22 02:29:06;;;;;;;18.38;13.20;;;;;;;15.04;58.13;100033.16;5090969;28;20057;-69
2021/09/22 02:31:32;;;;;;;18.75;12.82;;;;;;;15.01;57.63;100038.34;5094632;28;20016;-69
2021/09/22 02:33:57;;;;;;;19.08;13.30;;;;;;;15.07;57.78;100043.72;5094060;28;20024;-69
2021/09/22 02:36:23;;;;;;;19.98;13.95;;;;;;;15.04;58.15;100042.47;5094539;28;20016;-69
2021/09/22 02:38:50;;;;;;;20.13;13.70;;;;;;;15.01;57.75;100038.34;5094150;28;20028;-69
2021/09/22 02:41:15;;;;;;;19.17;12.55;;;;;;;15.06;57.60;100037.28;5093015;28;20402;-69
2021/09/22 02:43:41;;;;;;;18.83;12.63;;;;;;;14.97;57.01;100048.69;5094090;28;20032;-69
2021/09/22 02:46:06;;;;;;;19.92;13.55;;;;;;;14.96;57.01;100044.22;5094242;28;20024;-69
2021/09/22 02:48:32;;;;;;;18.10;12.68;;;;;;;14.90;57.60;100054.06;5093946;28;20129;-69
2021/09/22 02:50:57;;;;;;;18.17;13.05;;;;;;;14.97;57.56;100045.84;5094237;28;20015;-69
2021/09/22 02:53:23;;;;;;;19.13;12.05;;;;;;;14.97;57.19;100039.38;5093536;28;20020;-69
2021/09/22 02:55:49;;;;;;;17.77;11.77;;;;;;;14.91;56.52;100046.44;5092444;28;20494;-69
2021/09/22 02:58:14;;;;;;;14.70;11.40;;;;;;;14.77;57.74;100049.59;5093866;28;20023;-69
2021/09/22 03:00:40;;;;;;;17.15;12.90;;;;;;;14.87;56.98;100043.50;5089159;28;20089;-69
2021/09/22 03:03:05;;;;;;;19.25;12.80;;;;;;;15.04;56.92;100038.81;5093212;28;20579;-69
2021/09/22 03:05:31;;;;;;;17.77;12.60;;;;;;;14.92;56.83;100034.81;5091346;28;20438;-69
2021/09/22 03:07:57;;;;;;;16.25;12.18;;;;;;;15.12;56.09;100029.44;5083863;28;20085;-69
2021/09/22 03:10:22;;;;;;;17.27;12.65;;;;;;;15.04;56.72;100030.34;5089592;28;20020;-69
2021/09/22 03:12:48;;;;;;;20.48;12.10;;;;;;;14.95;57.04;100025.66;5090734;28;20065;-69
2021/09/22 03:15:14;;;;;;;15.20;11.63;;;;;;;15.12;56.29;100030.22;5091467;28;20063;-69
2021/09/22 03:17:40;;;;;;;19.75;12.82;;;;;;;14.99;56.51;100026.59;5089997;28;20102;-69
2021/09/22 03:20:07;;;;;;;15.85;12.23;;;;;;;15.13;56.22;100014.16;5077820;28;20077;-69
2021/09/22 03:22:32;;;;;;;18.10;12.20;;;;;;;14.95;56.70;100022.84;5075287;28;20026;-69
2021/09/22 03:24:58;;;;;;;15.10;12.65;;;;;;;15.04;56.05;100019.09;5080312;28;20016;-69
2021/09/22 03:27:23;;;;;;;18.77;11.50;;;;;;;15.00;56.60;100031.06;5076528;28;20078;-69
2021/09/22 03:29:49;;;;;;;17.98;12.63;;;;;;;14.96;57.07;100023.66;5076451;28;20150;-69
2021/09/22 03:32:14;;;;;;;17.83;12.73;;;;;;;15.00;57.02;100022.63;5078474;28;20094;-69
2021/09/22 03:34:40;;;;;;;17.13;12.95;;;;;;;15.04;56.87;100017.09;5089473;28;20102;-69
2021/09/22 03:37:05;;;;;;;20.67;14.45;;;;;;;15.10;56.73;100014.88;5083412;28;20021;-69
2021/09/22 03:39:31;;;;;;;18.00;13.82;;;;;;;14.97;56.35;100016.84;5092216;28;20059;-69
2021/09/22 03:41:57;;;;;;;15.45;12.18;;;;;;;14.98;57.06;100019.34;5081439;28;20470;-69
2021/09/22 03:44:22;;;;;;;20.85;13.02;;;;;;;15.00;56.86;100011.34;5074735;28;20028;-69
2021/09/22 03:46:48;;;;;;;18.23;13.05;;;;;;;15.04;56.48;100017.09;5081312;28;20024;-69
2021/09/22 03:49:13;;;;;;;19.55;13.52;;;;;;;14.97;56.93;100016.84;5082208;28;20028;-69
2021/09/22 03:51:39;;;;;;;20.52;13.60;;;;;;;14.94;57.49;100021.19;5082158;28;20029;-69
2021/09/22 03:54:05;;;;;;;22.20;14.65;;;;;;;14.88;56.85;100016.97;5088090;28;20030;-69
2021/09/22 03:56:30;;;;;;;17.70;13.30;;;;;;;15.01;56.42;100023.41;5077749;28;20035;-69
2021/09/22 03:58:56;;;;;;;17.52;12.82;;;;;;;15.05;56.55;100024.38;5075024;28;20021;-69
2021/09/22 04:01:22;;;;;;;17.50;13.05;;;;;;;15.06;56.76;100022.38;5082301;28;20048;-69
2021/09/22 04:03:48;;;;;;;20.70;13.90;;;;;;;15.17;56.26;100015.09;5078478;28;20146;-69
2021/09/22 04:06:14;;;;;;;23.60;13.55;;;;;;;15.21;56.81;100020.84;5086811;28;20161;-69
2021/09/22 04:08:39;;;;;;;18.20;12.90;;;;;;;15.33;56.43;100009.56;5076240;28;20077;-69
2021/09/22 04:11:05;;;;;;;19.52;13.35;;;;;;;15.34;56.52;100004.75;5077968;28;20673;-69
2021/09/22 04:13:31;;;;;;;17.25;12.73;;;;;;;15.34;56.40;100008.38;5077638;28;20031;-69
2021/09/22 04:15:56;;;;;;;17.42;12.93;;;;;;;15.40;56.22;100006.97;5090672;28;20028;-69
2021/09/22 04:18:22;;;;;;;21.60;13.75;;;;;;;15.41;55.70;100007.78;5090539;28;20024;-69
2021/09/22 04:20:47;;;;;;;21.48;13.60;;;;;;;15.40;56.34;100001.34;5087837;28;20051;-69
2021/09/22 04:23:13;;;;;;;19.58;13.63;;;;;;;15.35;56.10;99998.75;5088690;28;20111;-69
2021/09/22 04:25:38;;;;;;;19.90;14.90;;;;;;;15.29;55.95;100006.63;5086299;28;20464;-69
2021/09/22 04:28:04;;;;;;;21.52;15.10;;;;;;;15.17;56.12;99998.19;5074096;28;20047;-69
2021/09/22 04:30:30;;;;;;;24.33;13.93;;;;;;;15.13;57.13;100000.88;5084570;28;20052;-69
2021/09/22 04:32:56;;;;;;;21.98;15.60;;;;;;;15.13;57.01;100002.88;5074465;28;20491;-69
2021/09/22 04:35:21;;;;;;;22.55;15.73;;;;;;;15.05;57.29;99995.38;5071792;28;20056;-69
2021/09/22 04:37:47;;;;;;;22.02;14.30;;;;;;;15.10;57.61;99992.34;5089554;28;20111;-69
2021/09/22 04:40:14;;;;;;;23.77;15.55;;;;;;;15.01;57.59;99995.25;5090192;28;20495;-69
2021/09/22 04:42:39;;;;;;;19.48;14.38;;;;;;;14.97;57.40;100003.59;5091529;28;20391;-69
2021/09/22 04:45:06;;;;;;;24.85;14.68;;;;;;;14.95;57.36;100005.94;5085952;28;20052;-69
2021/09/22 04:47:32;;;;;;;20.67;15.68;;;;;;;14.89;57.68;100010.16;5075406;28;20024;-69
2021/09/22 04:50:03;;;;;;;21.83;15.45;;;;;;;14.85;57.13;99997.97;5087630;28;20074;-69
2021/09/22 04:52:28;;;;;;;;;;;;;;;14.76;57.18;100005.69;5090212;28;20042;-69
2021/09/22 04:54:54;;;;;;;21.60;13.88;;;;;;;15.01;55.77;99993.28;5091139;28;19908;-69
2021/09/22 04:57:19;;;;;;;19.75;14.10;;;;;;;14.99;55.40;99992.81;5091058;28;20028;-69
2021/09/22 04:59:45;;;;;;;21.10;14.35;;;;;;;14.91;55.64;99995.75;5088090;28;20040;-69
2021/09/22 05:02:10;;;;;;;20.05;13.40;;;;;;;14.90;55.98;99994.06;5086283;28;20048;-69
2021/09/22 05:04:36;;;;;;;18.13;12.75;;;;;;;14.95;55.61;99986.22;5088145;28;20517;-70
2021/09/22 05:07:01;;;;;;;19.25;12.73;;;;;;;14.81;55.93;99991.38;5089782;28;20024;-69
2021/09/22 05:09:27;;;;;;;16.90;13.13;;;;;;;14.82;56.10;99993.03;5087368;28;20428;-69
2021/09/22 05:11:54;;;;;;;18.40;13.38;;;;;;;14.81;55.67;100002.66;5082013;28;20032;-69
2021/09/22 05:14:20;;;;;;;16.80;13.05;;;;;;;14.86;55.63;99994.78;5091457;28;20023;-69
2021/09/22 05:16:45;;;;;;;21.88;12.50;;;;;;;14.85;54.53;99995.16;5087581;28;20024;-68
2021/09/22 05:19:11;;;;;;;17.88;12.48;;;;;;;15.07;54.37;99987.38;5089758;28;20031;-69
2021/09/22 05:21:39;;;;;;;27.20;18.05;;;;;;;14.99;54.37;99981.53;5083303;28;21524;-69
2021/09/22 05:24:05;;;;;;;22.08;16.27;;;;;;;14.91;55.95;99985.28;5084537;28;20456;-68
2021/09/22 05:26:30;;;;;;;20.55;13.98;;;;;;;14.97;56.18;99978.25;5085348;28;20077;-69
2021/09/22 05:28:56;;;;;;;19.98;13.70;;;;;;;15.07;55.66;99979.78;5078902;28;20063;-68
2021/09/22 05:31:21;;;;;;;24.05;13.45;;;;;;;15.06;55.04;99968.84;5083021;28;20028;-69
2021/09/22 05:33:47;;;;;;;18.02;12.40;;;;;;;15.06;55.04;99966.03;5082583;28;20122;-68
2021/09/22 05:36:12;;;;;;;13.73;11.20;;;;;;;15.22;53.38;99969.78;5085769;28;20111;-69
2021/09/22 05:38:38;;;;;;;18.08;12.52;;;;;;;15.24;53.67;99969.41;5080803;28;20063;-69
2021/09/22 05:41:03;;;;;;;18.77;12.77;;;;;;;15.30;54.59;99974.44;5090722;28;20024;-68
2021/09/22 05:43:29;;;;;;;20.70;12.40;;;;;;;15.36;54.83;99960.13;5089664;28;20028;-69
2021/09/22 05:45:54;;;;;;;21.52;13.48;;;;;;;15.40;54.73;99967.50;5089111;28;20107;-69
2021/09/22 05:48:20;;;;;;;21.73;13.57;;;;;;;15.45;54.11;99969.28;5090386;28;20139;-69
2021/09/22 05:50:45;;;;;;;23.05;14.07;;;;;;;15.44;55.50;99976.06;5090397;28;20411;-72
2021/09/22 05:53:11;;;;;;;20.65;14.05;;;;;;;15.49;54.78;99967.38;5087104;28;20030;-72
2021/09/22 05:55:36;;;;;;;16.55;12.32;;;;;;;15.51;53.13;99965.00;5087068;28;20269;-70
2021/09/22 05:58:02;;;;;;;15.90;11.85;;;;;;;15.53;52.03;99968.28;5085852;28;20032;-70
2021/09/22 06:00:27;;;;;;;19.40;11.85;;;;;;;15.60;50.52;99967.69;5087876;28;20035;-69
2021/09/22 06:02:53;;;;;;;13.75;10.25;;;;;;;15.37;50.03;99967.41;5083051;28;20106;-71
2021/09/22 06:05:18;;;;;;;15.02;11.50;;;;;;;15.42;50.72;99976.44;5075756;28;20105;-72
2021/09/22 06:07:44;;;;;;;18.23;11.05;;;;;;;15.50;48.32;99971.81;5074529;28;20067;-73
2021/09/22 06:10:10;;;;;;;20.60;9.73;;;;;;;15.46;47.40;99968.09;5088319;28;20042;-72
2021/09/22 06:12:35;;;;;;;12.27;9.07;;;;;;;15.48;46.52;99974.19;5081227;28;20487;-70
2021/09/22 06:15:01;;;;;;;18.38;11.10;;;;;;;15.59;47.99;99974.50;5080140;28;20020;-70
2021/09/22 06:17:27;;;;;;;11.07;9.88;;;;;;;15.67;47.10;99970.72;5088735;28;20034;-70
2021/09/22 06:19:52;;;;;;;13.85;11.18;;;;;;;15.64;47.90;99973.44;5080616;28;20016;-72
2021/09/22 06:22:24;;;;;;;9.82;8.80;;;;;;;15.69;47.07;99979.63;5079607;28;20024;-70
2021/09/22 06:24:50;;;;;;;12.98;9.90;;;;;;;15.58;47.17;99979.34;5074902;28;20513;-71
2021/09/22 06:27:15;;;;;;;11.05;8.60;;;;;;;15.42;47.19;99984.06;5072073;28;20027;-70
2021/09/22 06:29:41;;;;;;;12.25;10.07;;;;;;;15.47;47.88;99978.19;5080539;28;20044;-70
2021/09/22 06:32:07;;;;;;;12.90;9.95;;;;;;;15.55;46.67;99980.03;5083010;28;20030;-69
2021/09/22 06:34:32;;;;;;;11.73;10.05;;;;;;;15.52;46.78;99979.94;5084457;28;20039;-68
2021/09/22 06:36:58;;;;;;;13.77;10.52;;;;;;;15.61;46.03;99991.88;5079738;28;20419;-69
2021/09/22 06:39:24;;;;;;;15.15;10.57;;;;;;;15.62;46.40;99984.25;5090785;28;20455;-69
2021/09/22 06:41:49;;;;;;;18.38;10.00;;;;;;;15.49;45.96;99981.47;5092427;28;20035;-69
2021/09/22 06:44:15;;;;;;;14.60;11.07;;;;;;;15.46;46.38;99981.34;5092895;28;20032;-69
2021/09/22 06:46:40;;;;;;;12.55;9.40;;;;;;;15.42;46.52;99987.72;5092802;28;20024;-69
2021/09/22 06:49:06;;;;;;;12.20;8.43;;;;;;;15.48;47.37;99984.63;5090441;28;20034;-69
2021/09/22 06:51:31;;;;;;;10.75;9.20;;;;;;;15.56;47.04;99976.03;5087788;28;20031;-69
2021/09/22 06:53:57;;;;;;;10.05;8.85;;;;;;;15.53;46.67;99979.56;5089484;28;20040;-69
2021/09/22 06:56:24;;;;;;;12.40;8.38;;;;;;;15.63;46.09;99983.06;5086405;28;20103;-69
2021/09/22 06:58:50;;;;;;;15.95;9.35;;;;;;;15.61;45.88;99979.78;5086656;28;20032;-69
2021/09/22 07:01:15;;;;;;;12.27;8.95;;;;;;;15.44;46.77;99985.34;5083094;28;20047;-69
2021/09/22 07:03:41;;;;;;;14.63;8.90;;;;;;;15.46;46.74;99989.81;5091236;28;20112;-69
2021/09/22 07:06:09;;;;;;;13.52;9.50;;;;;;;15.55;46.25;99988.47;5091693;28;20048;-69
2021/09/22 07:08:35;;;;;;;17.08;9.45;;;;;;;15.62;46.99;99987.06;5090796;28;20516;-69
2021/09/22 07:11:00;;;;;;;11.00;9.30;;;;;;;15.73;47.83;99985.41;5089487;28;20059;-69
2021/09/22 07:13:26;;;;;;;11.93;8.95;;;;;;;15.82;47.01;99988.06;5090711;28;20505;-69
2021/09/22 07:15:51;;;;;;;15.15;10.05;;;;;;;15.77;45.45;99985.50;5091758;28;20031;-70
2021/09/22 07:18:18;;;;;;;13.40;9.48;;;;;;;15.84;45.35;99986.53;5092706;28;20028;-70
2021/09/22 07:20:44;;;;;;;16.00;9.48;;;;;;;15.84;45.24;99986.53;5106234;27;20024;-70
2021/09/22 07:23:10;;;;;;;12.48;8.88;;;;;;;15.75;44.27;99982.19;5091690;28;20035;-70
2021/09/22 07:25:36;;;;;;;16.83;10.07;;;;;;;15.61;44.47;99986.22;5083481;28;20411;-70
2021/09/22 07:28:02;;;;;;;17.50;10.43;;;;;;;15.76;44.85;99979.03;5092610;28;20028;-70
2021/09/22 07:30:27;;;;;;;13.82;10.85;;;;;;;15.84;45.85;99977.22;5084967;28;20064;-70
2021/09/22 07:32:54;;;;;;;14.15;9.80;;;;;;;15.93;43.59;99977.94;5091393;28;20102;-70
2021/09/22 07:35:19;;;;;;;25.58;11.98;;;;;;;15.86;44.39;99986.97;5083509;28;20028;-70
2021/09/22 07:37:46;;;;;;;15.07;9.95;;;;;;;15.74;44.43;99975.75;5088557;28;20068;-70
2021/09/22 07:40:12;;;;;;;15.48;9.20;;;;;;;15.79;44.31;99974.69;5086796;28;20028;-70
2021/09/22 07:42:38;;;;;;;13.77;9.80;;;;;;;15.96;43.39;99977.22;5089162;28;20057;-70
2021/09/22 07:45:05;;;;;;;24.80;10.82;;;;;;;15.96;43.37;99977.22;5088666;28;20072;-70
2021/09/22 07:47:31;;;;;;;16.38;9.68;;;;;;;15.97;42.92;99976.03;5091483;28;20043;-70
2021/09/22 07:49:58;;;;;;;17.58;12.10;;;;;;;15.92;42.85;99970.66;5086756;28;20023;-70
2021/09/22 07:52:24;;;;;;;12.82;9.90;;;;;;;15.76;44.20;99972.59;5081777;28;20024;-69
2021/09/22 07:54:49;;;;;;;13.98;8.77;;;;;;;15.92;44.86;99958.53;5082990;28;20510;-69
2021/09/22 07:57:17;;;;;;;15.75;9.85;;;;;;;15.99;44.69;99958.75;5089393;28;20024;-69
2021/09/22 07:59:43;;;;;;;14.77;10.13;;;;;;;16.08;44.15;99953.78;5086968;28;20034;-70
2021/09/22 08:02:09;;;;;;;17.80;11.13;;;;;;;16.00;44.61;99958.41;5084554;28;20442;-70
2021/09/22 08:04:35;;;;;;;11.65;9.55;;;;;;;16.07;44.55;99957.78;5086730;28;20043;-70
2021/09/22 08:07:02;;;;;;;11.05;9.07;;;;;;;16.11;44.07;99961.50;5084917;28;20039;-70
2021/09/22 08:09:28;;;;;;;13.35;10.57;;;;;;;16.15;43.22;99961.63;5085107;28;20030;-70
2021/09/22 08:11:54;;;;;;;13.13;9.70;;;;;;;16.09;41.68;99957.41;5084165;28;20035;-69
2021/09/22 08:14:20;;;;;;;10.80;9.13;;;;;;;15.96;42.24;99951.00;5082664;28;20020;-69
2021/09/22 08:16:45;;;;;;;12.45;8.75;;;;;;;15.99;42.04;99948.31;5084893;28;20028;-70
2021/09/22 08:19:14;;;;;;;11.70;8.32;;;;;;;16.15;41.82;99947.50;5084372;28;20035;-69
2021/09/22 08:21:40;;;;;;;17.10;9.15;;;;;;;16.29;41.98;99935.78;5085669;28;20036;-70
2021/09/22 08:24:06;;;;;;;10.38;8.77;;;;;;;16.05;41.73;99937.56;5082155;28;20774;-68
2021/09/22 08:26:32;;;;;;;15.10;8.73;;;;;;;16.22;41.86;99949.69;5089228;28;20362;-70
2021/09/22 08:28:58;;;;;;;14.88;8.30;;;;;;;16.16;41.98;99937.03;5087632;28;20501;-70
2021/09/22 08:31:24;;;;;;;16.40;9.98;;;;;;;16.10;42.05;99931.66;5084879;28;20025;-71
2021/09/22 08:33:49;;;;;;;12.82;8.60;;;;;;;16.25;41.79;99937.69;5084076;28;20038;-71
2021/09/22 08:36:15;;;;;;;11.10;8.15;;;;;;;16.10;40.43;99934.47;5080352;28;20484;-71
2021/09/22 08:38:40;;;;;;;9.13;7.50;;;;;;;16.01;41.04;99928.16;5086519;28;20106;-71
2021/09/22 08:41:06;;;;;;;9.60;7.68;;;;;;;15.93;40.51;99932.00;5086020;28;20479;-72
2021/09/22 08:43:32;;;;;;;10.38;7.82;;;;;;;15.89;41.01;99926.22;5086484;28;20036;-71
2021/09/22 08:45:58;;;;;;;9.90;8.25;;;;;;;15.89;39.70;99920.59;5086058;28;20051;-71
2021/09/22 08:48:26;;;;;;;9.10;6.38;;;;;;;15.79;39.01;99916.25;5079009;28;20024;-70
2021/09/22 08:50:54;;;;;;;9.00;6.00;;;;;;;15.88;38.86;99915.28;5078648;28;20029;-71
2021/09/22 08:53:20;;;;;;;10.20;6.85;;;;;;;15.89;39.22;99914.09;5084836;28;20106;-70
2021/09/22 08:55:46;;;;;;;9.63;7.00;;;;;;;16.04;38.71;99901.25;5083145;28;20028;-70
2021/09/22 08:58:11;;;;;;;10.50;7.00;;;;;;;16.03;38.40;99908.88;5084156;28;20101;-70
2021/09/22 09:00:37;;;;;;;10.25;6.40;;;;;;;15.90;38.36;99908.16;5081841;28;20210;-71
2021/09/22 09:03:02;;;;;;;9.77;6.57;;;;;;;15.94;38.79;99909.06;5073325;28;20036;-71
2021/09/22 09:05:28;;;;;;;9.00;5.90;;;;;;;15.83;38.77;99907.91;5072144;28;20055;-71
2021/09/22 09:07:55;;;;;;;6.75;5.78;;;;;;;15.86;38.11;99902.38;5071852;28;20024;-71
2021/09/22 09:10:32;;;;;;;9.23;6.05;;;;;;;15.89;38.16;99906.47;5083385;28;20027;-71
2021/09/22 09:12:58;;;;;;;7.53;6.20;;;;;;;15.95;37.80;99905.03;5086989;28;20031;-71
2021/09/22 09:15:30;;;;;;;9.07;5.80;;;;;;;15.91;38.61;99901.31;5080804;28;20111;-71
2021/09/22 09:17:59;;;;;;;9.00;5.93;;;;;;;15.96;38.31;99898.22;5096780;28;20086;-71
2021/09/22 09:20:28;;;;;;;9.73;6.82;;;;;;;15.95;38.41;99893.75;5074455;28;20020;-71
2021/09/22 09:23:02;;;;;;;9.23;6.68;;;;;;;15.93;38.90;99884.84;5086582;28;20023;-71
2021/09/22 09:25:37;;;;;;;10.43;6.60;;;;;;;15.95;38.88;99885.31;5081802;28;20028;-71
2021/09/22 09:28:34;;;;;;;8.88;6.97;;;;;;;15.96;39.07;99880.50;5083176;28;20460;-71
2021/09/22 09:31:01;;;;;;;11.23;6.68;;;;;;;16.04;39.23;99875.84;5088284;28;20040;-71
2021/09/22 09:33:33;;;;;;;10.02;7.68;;;;;;;16.04;39.71;99875.84;5085705;28;20563;-71
2021/09/22 09:36:00;;;;;;;9.52;7.13;;;;;;;16.05;40.73;99883.97;5085619;28;20051;-71
2021/09/22 09:38:31;;;;;;;10.30;8.63;;;;;;;16.12;40.44;99872.84;5076125;28;20040;-71
2021/09/22 09:40:57;;;;;;;15.13;9.27;;;;;;;16.10;40.51;99871.56;5081131;28;20146;-71
2021/09/22 09:43:22;;;;;;;12.68;8.82;;;;;;;16.18;40.31;99869.78;5076091;28;20468;-71
2021/09/22 09:45:48;;;;;;;12.93;9.95;;;;;;;16.34;40.21;99864.94;5078458;28;20027;-70
2021/09/22 09:48:22;;;;;;;9.38;8.40;;;;;;;16.16;40.11;99866.47;5087207;28;20031;-71
2021/09/22 09:50:53;;;;;;;11.07;9.43;;;;;;;16.10;39.87;99872.41;5086159;28;20162;-70
2021/09/22 09:53:27;;;;;;;11.00;8.73;;;;;;;15.97;40.92;99857.53;5081787;28;20484;-70
2021/09/22 09:55:56;;;;;;;15.45;9.45;;;;;;;16.02;40.74;99864.94;5083672;28;20024;-71
2021/09/22 09:58:26;;;;;;;13.00;9.48;;;;;;;16.12;39.76;99866.41;5076339;28;20082;-71
2021/09/22 10:00:53;;;;;;;12.13;9.25;;;;;;;16.14;39.47;99856.38;5088821;28;20039;-71
2021/09/22 10:03:23;;;;;;;11.80;8.90;;;;;;;16.05;39.81;99867.03;5086225;28;20570;-71
2021/09/22 10:05:53;;;;;;;16.00;8.98;;;;;;;16.22;39.94;99862.22;5072352;28;20114;-71
2021/09/22 10:08:21;;;;;;;14.02;10.45;;;;;;;16.22;40.20;99863.03;5077955;28;20032;-71
2021/09/22 10:10:50;;;;;;;17.60;9.27;;;;;;;16.16;39.47;99866.47;5082434;28;20067;-71
2021/09/22 10:13:17;;;;;;;13.50;9.52;;;;;;;16.04;39.63;99862.56;5086355;28;20089;-71
2021/09/22 10:15:45;;;;;;;17.45;9.95;;;;;;;16.24;39.45;99857.03;5081719;28;20071;-71
2021/09/22 10:18:12;;;;;;;10.32;8.15;;;;;;;16.16;39.09;99852.38;5089723;28;20500;-71
2021/09/22 10:20:39;;;;;;;11.05;7.97;;;;;;;16.22;38.90;99856.56;5087834;28;20092;-71
2021/09/22 10:23:06;;;;;;;9.95;8.85;;;;;;;16.26;38.79;99852.66;5078426;28;20032;-71
2021/09/22 10:25:32;;;;;;;12.50;8.98;;;;;;;16.16;38.89;99843.91;5077243;28;20047;-71
2021/09/22 10:27:58;;;;;;;16.83;10.88;;;;;;;16.17;38.11;99845.53;5082577;28;20027;-71
2021/09/22 10:30:37;;;;;;;14.57;10.23;;;;;;;16.23;38.17;99838.44;5082418;28;20459;-71
2021/09/22 10:33:04;;;;;;;10.00;8.63;;;;;;;16.11;38.13;99836.56;5084483;28;20119;-71
2021/09/22 10:35:35;;;;;;;27.10;15.98;;;;;;;16.14;38.39;99839.44;5083374;28;20039;-71
2021/09/22 10:38:21;;;;;;;30.98;19.50;;;;;;;16.23;38.34;99844.94;5086986;28;20132;-71
2021/09/22 10:40:50;;;;;;;30.88;17.40;;;;;;;16.10;38.78;99834.88;5092685;28;20052;-71
2021/09/22 10:43:15;;;;;;;18.73;13.35;;;;;;;16.28;38.95;99832.53;5088632;28;20398;-71
2021/09/22 10:45:45;;;;;;;16.73;11.70;;;;;;;16.19;39.08;99829.09;5091268;28;20024;-71
2021/09/22 10:48:19;;;;;;;16.73;11.80;;;;;;;16.16;38.71;99829.78;5087753;28;20062;-71
2021/09/22 10:51:05;;;;;;;24.58;13.65;;;;;;;16.12;38.01;99826.91;5089414;28;20032;-71
2021/09/22 10:53:33;;;;;;;16.55;11.10;;;;;;;16.09;38.27;99822.81;5086015;28;20100;-71
2021/09/22 10:56:04;;;;;;;20.90;11.52;;;;;;;16.08;38.49;99823.16;5088152;28;20517;-71
2021/09/22 10:58:38;;;;;;;16.45;10.93;;;;;;;16.09;38.40;99822.81;5077265;28;20039;-71
2021/09/22 11:01:03;;;;;;;19.48;11.05;;;;;;;16.09;38.45;99817.16;5085714;28;20426;-71
2021/09/22 11:03:47;;;;;;;14.32;9.88;;;;;;;16.21;38.86;99810.59;5077208;28;20032;-71
2021/09/22 11:06:44;;;;;;;14.40;9.00;;;;;;;16.16;37.73;99818.50;5086131;28;20028;-71
2021/09/22 11:09:30;;;;;;;13.55;9.32;;;;;;;16.17;38.04;99815.34;5081644;28;20399;-71
2021/09/22 11:11:56;;;;;;;16.17;9.85;;;;;;;16.22;37.97;99822.72;5087609;28;20024;-71
2021/09/22 11:14:30;;;;;;;16.08;10.40;;;;;;;16.12;38.06;99824.88;5089952;28;20027;-71
2021/09/22 11:16:57;;;;;;;14.80;9.48;;;;;;;16.22;36.99;99822.72;5083579;28;20105;-71